Home   Weather   Cape Hatteras   Past weeks
Flag for USA

Past Weather in Cape Hatteras, North Carolina, USA — Yesterday and Last 2 Weeks

Currently: 82 °F. Clear. (Weather station: Manteo / Dare County Regional, USA). See more current weather

Past Weather in Cape Hatteras — Graph

°F

Cape Hatteras Temperature Yesterday

Maximum temperature yesterday: 87 °F (at 3:35 pm)
Minimum temperature yesterday: 77 °F (at 10:35 pm)
Average temperature yesterday: 82 °F

High & Low Weather Summary for the Past Weeks

 TemperatureHumidityPressure
High93 °F (Jul 28, 3:35 pm)95% (Jul 30, 12:55 am)30.30 "Hg (Jul 30, 12:55 am)
Low73 °F (Jul 31, 3:15 am)50% (Aug 2, 4:15 pm)29.91 "Hg (Aug 2, 4:55 pm)
Average82 °F77%30.09 "Hg
* Reported Jul 23 10:15 pm — Aug 7 10:35 pm, Cape Hatteras. Weather by CustomWeather, © 2022

Note: Actual official high and low records may vary slightly from our data, if they occured in-between our weather recording intervals... More about our weather records

Cape Hatteras Weather History for the Previous 24 Hours

Scroll right to see more
 ConditionsComfort  
Time TempWeatherWind HumidityBarometerVisibility
10:35 pm
Sun, Aug 7
82 °FClear.10 mph75%30.20 "Hg10 mi
10:15 pm82 °FClear.13 mph75%30.20 "Hg10 mi
9:55 pm83 °FClear.12 mph73%30.20 "Hg10 mi
9:15 pm82 °FClear.13 mph71%30.19 "Hg10 mi
8:55 pm83 °FClear.13 mph69%30.18 "Hg10 mi
7:15 pm85 °FScattered clouds.14 mph65%30.18 "Hg10 mi
6:55 pm85 °FSunny.15 mph66%30.17 "Hg10 mi
6:35 pm85 °FSunny.16 mph66%30.17 "Hg10 mi
6:15 pm85 °FSunny.14 mph65%30.17 "Hg10 mi
5:55 pm86 °FSunny.14 mph63%30.18 "Hg10 mi
5:35 pm86 °FSunny.15 mph66%30.17 "Hg10 mi
5:15 pm86 °FSunny.14 mph66%30.18 "Hg10 mi
4:55 pm86 °FSunny.10 mph68%30.18 "Hg10 mi
4:15 pm86 °FSunny.12 mph65%30.19 "Hg10 mi
3:55 pm86 °FSunny.13 mph67%30.20 "Hg10 mi
3:35 pm86 °FSunny.12 mph64%30.20 "Hg10 mi
3:15 pm87 °FSunny.12 mph65%30.20 "Hg10 mi
2:35 pm86 °FSunny.13 mph66%30.22 "Hg10 mi
1:55 pm86 °FSunny.10 mph67%30.23 "Hg10 mi
1:15 pm86 °FSunny.10 mph67%30.24 "Hg10 mi
12:55 pm86 °FSunny.10 mph67%30.25 "Hg10 mi
12:35 pm86 °FSunny.9 mph66%30.25 "Hg10 mi
11:55 am85 °FSunny.12 mph66%30.26 "Hg10 mi
11:35 am85 °FSunny.10 mph66%30.27 "Hg10 mi
11:15 am86 °FSunny.12 mph67%30.27 "Hg10 mi
10:55 am85 °FScattered clouds.12 mph67%30.27 "Hg10 mi
10:15 am83 °FScattered clouds.12 mph71%30.26 "Hg10 mi
9:55 am85 °FScattered clouds.10 mph68%30.26 "Hg10 mi
9:35 am84 °FScattered clouds.10 mph67%30.26 "Hg10 mi
8:55 am83 °FScattered clouds.8 mph67%30.26 "Hg10 mi
8:35 am83 °FScattered clouds.8 mph67%30.26 "Hg10 mi
7:55 am82 °FScattered clouds.8 mph68%30.25 "Hg10 mi
7:15 am79 °FPartly sunny.6 mph79%30.25 "Hg10 mi
6:35 am78 °FSunny.5 mph82%30.25 "Hg10 mi
6:15 am78 °FSunny.6 mph82%30.25 "Hg10 mi
5:55 am76 °FClear.5 mph89%30.24 "Hg10 mi
5:35 am77 °FClear.3 mph84%30.24 "Hg10 mi
5:15 am78 °FClear.5 mph83%30.24 "Hg10 mi
4:55 am79 °FPassing clouds.5 mph79%30.24 "Hg10 mi
4:35 am78 °FPassing clouds.5 mph86%30.24 "Hg10 mi
4:15 am78 °FPassing clouds.3 mph88%30.24 "Hg10 mi
3:35 am78 °FPartly cloudy.5 mph81%30.24 "Hg10 mi
2:55 am78 °FPassing clouds.3 mph80%30.24 "Hg10 mi
2:35 am79 °FPassing clouds.5 mph79%30.24 "Hg10 mi
1:55 am78 °FClear.5 mph80%30.25 "Hg10 mi
1:15 am79 °FPartly cloudy.5 mph81%30.26 "Hg10 mi
12:55 am79 °FPassing clouds.6 mph82%30.26 "Hg10 mi
12:35 am79 °FPassing clouds.5 mph81%30.26 "Hg10 mi
12:15 am79 °FPassing clouds.5 mph82%30.26 "Hg10 mi
11:55 pm
Sat, Aug 6
79 °FPassing clouds.6 mph82%30.26 "Hg10 mi
11:35 pm78 °FPassing clouds.5 mph83%30.27 "Hg10 mi
11:15 pm78 °FPassing clouds.6 mph87%30.27 "Hg10 mi
Weather by CustomWeather, © 2022

See weather overview